Guangnan, China
Current Conditions -  °F | °C
As of 7:00 PM on Thursday 23 Oct 2014 (Local Time) from ZPPP Reporting Station
Clear Clear  
Wind Chill: 63°   Ceiling: Unl
Heat Index: 63°   Visibility: 6mi
Dew Point: 41°   Wind: 2mph
Humidity: 45%   Direction: NA
Pressure: 30.21"   Gusts: NA
Location:  24.07°N, 105.07°E
Report Text: ZPPP 231100Z VRB01MPS CAVOK 17/05 Q1023 NOSIG
Loading
Personal Weather Stations






























Interactive Weather Map
Tropical Storm Tracking
New forecast layout! Learn more

10-Day Weather Forecast

Advertisements
Track Severe Weather on mobile